Time;durP1;ratioP1;P1;durP2;ratioP2;P2;SDS_P1;SDS_P2;PMS_P1;PMS_P2;Temp;Humidity;BMP_temperature;BMP_pressure;BME280_temperature;BME280_humidity;BME280_pressure;Samples;Min_cycle;Max_cycle;Signal;HPM_P1;HPM_P2
2022/07/17 00:02:17;;;;;;;5.47;2.00;;;17.40;99.90;;;;;;5053460;28;20171;-44
2022/07/17 00:04:42;;;;;;;5.05;1.88;;;17.40;99.90;;;;;;5053715;28;20167;-45
2022/07/17 00:07:08;;;;;;;5.55;1.95;;;17.40;99.90;;;;;;5053423;28;20223;-47
2022/07/17 00:09:34;;;;;;;4.30;2.00;;;17.40;99.90;;;;;;5053523;28;20162;-45
2022/07/17 00:11:59;;;;;;;7.97;2.30;;;17.40;99.90;;;;;;5053838;28;20219;-45
2022/07/17 00:14:25;;;;;;;4.88;2.10;;;17.40;99.90;;;;;;5053483;28;20174;-45
2022/07/17 00:16:51;;;;;;;9.30;2.35;;;17.40;99.90;;;;;;5053370;28;20189;-45
2022/07/17 00:19:17;;;;;;;8.10;1.95;;;17.40;99.90;;;;;;5053439;28;20206;-44
2022/07/17 00:21:42;;;;;;;6.78;2.67;;;17.30;99.90;;;;;;5053279;28;20237;-44
2022/07/17 00:24:08;;;;;;;6.43;2.15;;;17.30;99.90;;;;;;5053251;28;20170;-45
2022/07/17 00:26:34;;;;;;;5.70;2.10;;;17.30;99.90;;;;;;5053143;28;20197;-44
2022/07/17 00:29:02;;;;;;;4.95;1.92;;;17.30;99.90;;;;;;5053555;28;20195;-44
2022/07/17 00:31:27;;;;;;;5.13;2.10;;;17.20;99.90;;;;;;5053420;28;20254;-44
2022/07/17 00:33:53;;;;;;;5.90;2.40;;;17.20;99.90;;;;;;5053082;28;20662;-47
2022/07/17 00:36:18;;;;;;;5.80;2.28;;;17.10;99.90;;;;;;5052880;28;20179;-45
2022/07/17 00:38:44;;;;;;;5.32;2.13;;;17.10;99.90;;;;;;5053078;28;20170;-44
2022/07/17 00:41:13;;;;;;;8.25;2.05;;;17.00;99.90;;;;;;5052812;28;20213;-45
2022/07/17 00:43:38;;;;;;;6.18;1.90;;;17.00;99.90;;;;;;5052957;28;20163;-49
2022/07/17 00:46:05;;;;;;;10.35;2.25;;;16.90;99.90;;;;;;5052807;28;20228;-45
2022/07/17 00:48:32;;;;;;;5.00;1.88;;;16.80;99.90;;;;;;5052780;28;20159;-44
2022/07/17 00:50:58;;;;;;;6.07;2.30;;;16.80;99.90;;;;;;5053116;28;20624;-44
2022/07/17 00:53:24;;;;;;;7.53;2.30;;;16.90;99.90;;;;;;5052699;28;20166;-45
2022/07/17 00:55:49;;;;;;;4.68;1.90;;;16.90;99.90;;;;;;5052655;28;20173;-45
2022/07/17 00:58:24;;;;;;;7.15;2.63;;;16.80;99.90;;;;;;5052657;28;20174;-46
2022/07/17 01:00:52;;;;;;;3.45;2.22;;;16.80;99.90;;;;;;5052603;28;20256;-50
2022/07/17 01:03:19;;;;;;;7.72;2.80;;;16.70;99.90;;;;;;5052454;28;20167;-49
2022/07/17 01:05:46;;;;;;;1.90;1.70;;;16.60;99.90;;;;;;5052414;28;20222;-49
2022/07/17 01:08:11;;;;;;;5.47;2.20;;;16.60;99.90;;;;;;5051262;28;20649;-54
2022/07/17 01:10:38;;;;;;;7.22;2.22;;;16.60;99.90;;;;;;5052479;28;20175;-53
2022/07/17 01:13:04;;;;;;;5.70;2.35;;;16.50;99.90;;;;;;5052301;28;20170;-45
2022/07/17 01:15:37;;;;;;;6.10;2.38;;;16.60;99.90;;;;;;5051783;28;20170;-44
2022/07/17 01:18:08;;;;;;;6.47;2.17;;;16.60;99.90;;;;;;5052521;28;20277;-52
2022/07/17 01:20:35;;;;;;;3.58;1.63;;;16.60;99.90;;;;;;5050870;28;20671;-53
2022/07/17 01:23:01;;;;;;;5.65;2.20;;;16.60;99.90;;;;;;5052600;28;20533;-52
2022/07/17 01:25:26;;;;;;;4.78;1.90;;;16.40;99.90;;;;;;5052514;28;20169;-53
2022/07/17 01:27:52;;;;;;;4.03;2.28;;;16.20;99.90;;;;;;5052035;28;20241;-45
2022/07/17 01:30:18;;;;;;;7.10;2.08;;;16.40;99.90;;;;;;5052355;28;20591;-50
2022/07/17 01:32:44;;;;;;;5.00;1.92;;;16.40;99.90;;;;;;5052082;28;20197;-50
2022/07/17 01:35:12;;;;;;;6.78;2.20;;;16.50;99.90;;;;;;5052366;28;20187;-46
2022/07/17 01:37:39;;;;;;;6.28;2.40;;;16.50;99.90;;;;;;5052213;28;20171;-45
2022/07/17 01:40:05;;;;;;;6.10;2.25;;;16.50;99.90;;;;;;5051871;28;20198;-45
2022/07/17 01:42:31;;;;;;;9.98;2.40;;;16.50;99.90;;;;;;5050619;28;20272;-44
2022/07/17 01:44:57;;;;;;;8.40;2.85;;;16.60;99.90;;;;;;5052225;28;20506;-46
2022/07/17 01:47:23;;;;;;;3.35;2.20;;;16.50;99.90;;;;;;5051885;28;20178;-50
2022/07/17 01:49:51;;;;;;;5.35;2.33;;;16.40;99.90;;;;;;5051801;28;20182;-44
2022/07/17 01:52:18;;;;;;;4.90;2.20;;;16.30;99.90;;;;;;5051937;28;20626;-44
2022/07/17 01:54:44;;;;;;;6.88;2.13;;;16.30;99.90;;;;;;5051748;28;20170;-47
2022/07/17 01:57:11;;;;;;;5.50;2.05;;;16.30;99.90;;;;;;5051752;28;20213;-45
2022/07/17 01:59:37;;;;;;;6.07;2.20;;;16.40;99.90;;;;;;5051659;28;20170;-46
2022/07/17 02:02:04;;;;;;;7.07;1.88;;;16.30;99.90;;;;;;5051708;28;20198;-47
2022/07/17 02:04:31;;;;;;;4.15;2.00;;;16.40;99.90;;;;;;5051629;28;20189;-46
2022/07/17 02:06:57;;;;;;;4.57;2.00;;;16.40;99.90;;;;;;5051833;28;20229;-48
2022/07/17 02:09:23;;;;;;;5.70;2.33;;;16.20;99.90;;;;;;5051633;28;20608;-46
2022/07/17 02:11:49;;;;;;;10.07;2.78;;;16.30;99.90;;;;;;5051851;28;20175;-44
2022/07/17 02:14:14;;;;;;;4.90;2.05;;;16.20;99.90;;;;;;5051557;28;20167;-47
2022/07/17 02:16:40;;;;;;;8.00;2.65;;;16.20;99.90;;;;;;5051593;28;20525;-52
2022/07/17 02:19:06;;;;;;;5.45;2.15;;;16.20;99.90;;;;;;5051572;28;20249;-50
2022/07/17 02:21:31;;;;;;;5.05;2.08;;;16.00;99.90;;;;;;5051429;28;20600;-51
2022/07/17 02:23:57;;;;;;;7.68;2.38;;;15.90;99.90;;;;;;5051759;28;20732;-53
2022/07/17 02:26:22;;;;;;;10.15;2.30;;;15.90;99.90;;;;;;5051815;28;20537;-53
2022/07/17 02:28:48;;;;;;;3.05;2.28;;;15.80;99.90;;;;;;5055393;28;20167;-51
2022/07/17 02:31:14;;;;;;;5.65;2.30;;;16.00;99.90;;;;;;5055465;28;20616;-52
2022/07/17 02:33:40;;;;;;;5.55;2.50;;;15.90;99.90;;;;;;5055388;28;20159;-54
2022/07/17 02:36:06;;;;;;;7.95;2.72;;;15.80;99.90;;;;;;5055354;28;20173;-53
2022/07/17 02:38:31;;;;;;;3.67;2.08;;;15.70;99.90;;;;;;5055270;28;20614;-54
2022/07/17 02:40:57;;;;;;;6.63;2.72;;;15.70;99.90;;;;;;5055420;28;20230;-53
2022/07/17 02:43:22;;;;;;;5.40;2.38;;;15.70;99.90;;;;;;5055195;28;20533;-52
2022/07/17 02:45:48;;;;;;;5.22;2.42;;;15.80;99.90;;;;;;5055063;28;20228;-51
2022/07/17 02:48:14;;;;;;;7.97;2.53;;;15.70;99.90;;;;;;5055049;28;20196;-52
2022/07/17 02:50:39;;;;;;;6.10;2.20;;;15.60;99.90;;;;;;5055107;28;20167;-54
2022/07/17 02:53:05;;;;;;;3.97;2.20;;;15.60;99.90;;;;;;5055158;28;20714;-54
2022/07/17 02:55:31;;;;;;;7.03;1.80;;;15.60;99.90;;;;;;5054945;28;20178;-52
2022/07/17 02:57:56;;;;;;;7.00;2.25;;;15.50;99.90;;;;;;5055289;28;20163;-47
2022/07/17 03:00:22;;;;;;;4.97;2.38;;;15.50;99.90;;;;;;5055000;28;20194;-53
2022/07/17 03:02:48;;;;;;;4.10;2.15;;;15.50;99.90;;;;;;5054838;28;20167;-53
2022/07/17 03:05:15;;;;;;;9.57;2.38;;;15.60;99.90;;;;;;5055039;28;20171;-45
2022/07/17 03:07:42;;;;;;;4.30;2.10;;;15.50;99.90;;;;;;5054542;28;20210;-45
2022/07/17 03:10:08;;;;;;;5.70;2.20;;;15.50;99.90;;;;;;5054953;28;20261;-45
2022/07/17 03:12:34;;;;;;;5.20;2.35;;;15.60;99.90;;;;;;5054650;28;20173;-45
2022/07/17 03:15:00;;;;;;;6.75;2.45;;;15.50;99.90;;;;;;5054616;28;20174;-44
2022/07/17 03:17:25;;;;;;;4.95;2.60;;;15.50;99.90;;;;;;5054952;28;20194;-44
2022/07/17 03:19:52;;;;;;;6.00;2.30;;;15.40;99.90;;;;;;5054424;28;20252;-47
2022/07/17 03:22:18;;;;;;;4.68;2.55;;;15.40;99.90;;;;;;5054522;28;20190;-44
2022/07/17 03:24:43;;;;;;;8.38;2.97;;;15.30;99.90;;;;;;5054735;28;20221;-44
2022/07/17 03:27:09;;;;;;;5.53;2.50;;;15.20;99.90;;;;;;5054331;28;20175;-46
2022/07/17 03:29:34;;;;;;;5.57;2.13;;;15.30;99.90;;;;;;5054583;28;20240;-46
2022/07/17 03:32:00;;;;;;;3.13;1.90;;;15.30;99.90;;;;;;5054253;28;20227;-46
2022/07/17 03:34:26;;;;;;;5.32;2.55;;;15.10;99.90;;;;;;5054615;28;20166;-50
2022/07/17 03:36:51;;;;;;;5.20;2.60;;;15.00;99.90;;;;;;5054024;28;20167;-44
2022/07/17 03:39:17;;;;;;;6.90;1.92;;;15.00;99.90;;;;;;5053754;28;20173;-47
2022/07/17 03:41:43;;;;;;;10.70;2.58;;;15.00;99.90;;;;;;5054134;28;20210;-46
2022/07/17 03:44:09;;;;;;;6.30;2.63;;;14.90;99.90;;;;;;5054056;28;20166;-48
2022/07/17 03:46:35;;;;;;;7.85;2.72;;;14.80;99.90;;;;;;5054265;28;20186;-52
2022/07/17 03:49:01;;;;;;;7.95;3.08;;;14.90;99.90;;;;;;5054040;28;20163;-45
2022/07/17 03:51:26;;;;;;;3.78;2.13;;;14.90;99.90;;;;;;5052889;28;20542;-46
2022/07/17 03:53:52;;;;;;;3.72;2.28;;;14.90;99.90;;;;;;5053973;28;20170;-46
2022/07/17 03:56:18;;;;;;;4.70;2.25;;;15.00;99.90;;;;;;5053890;28;20197;-46
2022/07/17 03:58:43;;;;;;;4.80;2.10;;;15.00;99.90;;;;;;5052422;28;20162;-45
2022/07/17 04:01:09;;;;;;;6.55;2.80;;;15.00;99.90;;;;;;5053701;28;20284;-45
2022/07/17 04:03:35;;;;;;;5.70;2.58;;;15.00;99.90;;;;;;5053738;28;20169;-45
2022/07/17 04:06:00;;;;;;;7.43;2.33;;;15.00;99.90;;;;;;5053608;28;20226;-45
2022/07/17 04:08:26;;;;;;;3.90;2.15;;;15.00;99.90;;;;;;5054021;28;20526;-45
2022/07/17 04:10:51;;;;;;;7.75;2.40;;;15.20;99.90;;;;;;5053564;28;20174;-45
2022/07/17 04:13:17;;;;;;;9.65;2.50;;;15.30;99.90;;;;;;5053513;28;20167;-44
2022/07/17 04:15:49;;;;;;;8.18;2.30;;;15.10;99.90;;;;;;5053795;28;20202;-44
2022/07/17 04:18:17;;;;;;;5.75;2.33;;;15.10;99.90;;;;;;5053445;28;20224;-45
2022/07/17 04:20:43;;;;;;;5.88;3.00;;;15.20;99.90;;;;;;5053354;28;20213;-45
2022/07/17 04:23:09;;;;;;;10.23;3.25;;;15.30;99.90;;;;;;5053339;28;20163;-45
2022/07/17 04:25:35;;;;;;;6.10;2.70;;;15.40;99.90;;;;;;5053335;28;20232;-45
2022/07/17 04:28:00;;;;;;;3.85;2.60;;;15.50;99.90;;;;;;5053347;28;20186;-45
2022/07/17 04:30:26;;;;;;;13.77;2.30;;;15.50;99.90;;;;;;5053476;28;20245;-44
2022/07/17 04:32:52;;;;;;;5.53;2.50;;;15.40;99.90;;;;;;5053330;28;20171;-48
2022/07/17 04:35:17;;;;;;;9.88;2.60;;;15.40;99.90;;;;;;5053124;28;20163;-55
2022/07/17 04:37:43;;;;;;;8.57;2.88;;;15.40;99.90;;;;;;5053252;28;20599;-55
2022/07/17 04:40:10;;;;;;;8.48;2.67;;;15.60;99.90;;;;;;5053092;28;20199;-55
2022/07/17 04:42:35;;;;;;;8.25;2.72;;;15.70;99.90;;;;;;5053017;28;20166;-55
2022/07/17 04:45:01;;;;;;;8.23;2.55;;;15.60;99.90;;;;;;5053151;28;20646;-54
2022/07/17 04:47:27;;;;;;;6.80;2.70;;;15.70;99.90;;;;;;5053225;28;20170;-52
2022/07/17 04:49:52;;;;;;;6.35;2.53;;;15.80;99.90;;;;;;5051913;28;20242;-52
2022/07/17 04:52:18;;;;;;;6.72;2.55;;;15.80;99.90;;;;;;5052794;28;20616;-53
2022/07/17 04:54:43;;;;;;;4.95;2.17;;;15.90;99.90;;;;;;5052998;28;20174;-54
2022/07/17 04:57:09;;;;;;;7.95;2.50;;;16.00;99.90;;;;;;5051401;28;20261;-51
2022/07/17 04:59:37;;;;;;;10.82;2.10;;;16.40;99.90;;;;;;5052540;28;20236;-54
2022/07/17 05:02:03;;;;;;;7.97;2.40;;;16.70;99.90;;;;;;5052497;28;20527;-54
2022/07/17 05:04:29;;;;;;;8.10;2.50;;;16.60;99.90;;;;;;5052861;28;20166;-52
2022/07/17 05:06:54;;;;;;;12.13;2.83;;;16.60;99.90;;;;;;5052583;28;20222;-54
2022/07/17 05:09:20;;;;;;;7.30;2.72;;;16.70;99.90;;;;;;5052478;28;20171;-55
2022/07/17 05:11:45;;;;;;;6.60;2.55;;;16.70;99.90;;;;;;5052427;28;20542;-54
2022/07/17 05:14:11;;;;;;;7.45;2.95;;;16.80;99.90;;;;;;5052380;28;20166;-54
2022/07/17 05:16:36;;;;;;;7.13;2.65;;;17.10;99.90;;;;;;5052376;28;20166;-54
2022/07/17 05:19:02;;;;;;;6.82;2.45;;;17.40;99.90;;;;;;5052322;28;20174;-54
2022/07/17 05:21:28;;;;;;;6.93;2.83;;;17.60;99.90;;;;;;5052495;28;20552;-53
2022/07/17 05:23:53;;;;;;;7.32;2.85;;;17.70;99.90;;;;;;5052263;28;20171;-51
2022/07/17 05:26:19;;;;;;;4.63;2.45;;;17.80;99.90;;;;;;5052162;28;20647;-51
2022/07/17 05:28:44;;;;;;;9.80;2.85;;;17.80;99.90;;;;;;5052342;28;20627;-52
2022/07/17 05:31:10;;;;;;;5.10;2.40;;;17.60;99.90;;;;;;5052104;28;20167;-52
2022/07/17 05:33:36;;;;;;;8.57;2.72;;;17.70;99.90;;;;;;5052078;28;20174;-51
2022/07/17 05:36:02;;;;;;;6.15;2.53;;;17.90;99.90;;;;;;5052032;28;20206;-52
2022/07/17 05:38:27;;;;;;;7.28;4.10;;;18.00;99.90;;;;;;5052431;28;20171;-54
2022/07/17 05:40:53;;;;;;;7.13;3.05;;;18.00;99.90;;;;;;5051922;28;20205;-54
2022/07/17 05:43:18;;;;;;;7.07;2.95;;;18.00;99.90;;;;;;5052161;28;20217;-54
2022/07/17 05:45:44;;;;;;;6.35;2.38;;;18.00;99.90;;;;;;5051941;28;20245;-55
2022/07/17 05:48:10;;;;;;;7.63;3.05;;;17.90;99.90;;;;;;5051894;28;20190;-50
2022/07/17 05:50:36;;;;;;;9.77;3.08;;;17.90;99.90;;;;;;5051889;28;20178;-54
2022/07/17 05:53:02;;;;;;;5.97;2.97;;;17.80;99.90;;;;;;5051897;28;20163;-49
2022/07/17 05:55:27;;;;;;;10.98;2.97;;;17.80;99.90;;;;;;5052223;28;20162;-52
2022/07/17 05:57:53;;;;;;;5.03;2.85;;;18.00;99.90;;;;;;5050590;28;20175;-51
2022/07/17 06:00:20;;;;;;;4.47;2.95;;;18.00;99.90;;;;;;5051374;28;20210;-52
2022/07/17 06:02:46;;;;;;;6.53;2.95;;;18.10;99.90;;;;;;5051719;28;20632;-54
2022/07/17 06:05:11;;;;;;;6.28;2.80;;;18.10;99.90;;;;;;5051942;28;20171;-53
2022/07/17 06:07:37;;;;;;;8.02;2.55;;;18.10;99.90;;;;;;5051561;28;20207;-52
2022/07/17 06:10:04;;;;;;;8.85;3.20;;;18.10;99.90;;;;;;5051688;28;20237;-54
2022/07/17 06:12:30;;;;;;;6.82;2.72;;;18.10;99.90;;;;;;5051594;28;20224;-55
2022/07/17 06:14:56;;;;;;;4.82;2.63;;;18.30;99.90;;;;;;5051471;28;20167;-47
2022/07/17 06:17:22;;;;;;;9.68;2.55;;;18.40;99.90;;;;;;5051320;28;20198;-49
2022/07/17 06:19:51;;;;;;;7.82;3.13;;;18.50;99.90;;;;;;5051502;28;20158;-54
2022/07/17 06:22:18;;;;;;;11.52;3.17;;;18.60;99.90;;;;;;5051264;28;20206;-52
2022/07/17 06:24:44;;;;;;;7.43;3.33;;;18.40;99.90;;;;;;5051197;28;20174;-54
2022/07/17 06:27:10;;;;;;;8.93;3.05;;;18.30;99.90;;;;;;5051283;28;20174;-55
2022/07/17 06:29:35;;;;;;;7.45;2.60;;;18.50;99.90;;;;;;5051576;28;20193;-55
2022/07/17 06:32:01;;;;;;;6.47;3.00;;;18.50;99.90;;;;;;5051033;28;20637;-52
2022/07/17 06:34:26;;;;;;;8.65;3.50;;;18.70;99.90;;;;;;5051732;28;20162;-54
2022/07/17 06:36:52;;;;;;;5.38;3.38;;;18.70;99.90;;;;;;5051445;28;20182;-50
2022/07/17 06:39:18;;;;;;;4.53;2.45;;;18.90;99.90;;;;;;5051413;28;20301;-54
2022/07/17 06:41:43;;;;;;;4.93;2.70;;;18.90;99.90;;;;;;5051598;28;20211;-52
2022/07/17 06:44:09;;;;;;;4.30;2.65;;;19.10;99.90;;;;;;5051357;28;20206;-47
2022/07/17 06:46:34;;;;;;;8.77;3.08;;;19.10;99.90;;;;;;5051402;28;20171;-53
2022/07/17 06:49:00;;;;;;;6.28;3.38;;;19.20;99.90;;;;;;5051323;28;20553;-53
2022/07/17 06:51:25;;;;;;;5.70;2.83;;;19.20;99.90;;;;;;5051435;28;20201;-55
2022/07/17 06:53:51;;;;;;;6.43;2.92;;;19.30;99.90;;;;;;5049608;28;20574;-48
2022/07/17 06:56:17;;;;;;;8.68;3.00;;;19.50;99.90;;;;;;5049741;28;20205;-47
2022/07/17 06:58:42;;;;;;;7.22;2.92;;;19.70;99.90;;;;;;5048284;28;20170;-46
2022/07/17 07:01:08;;;;;;;9.50;3.35;;;19.60;99.90;;;;;;5049522;28;20202;-47
2022/07/17 07:03:34;;;;;;;4.95;2.53;;;19.50;99.90;;;;;;5049389;28;20262;-46
2022/07/17 07:05:59;;;;;;;5.78;2.72;;;19.70;99.90;;;;;;5049704;28;20238;-45
2022/07/17 07:08:25;;;;;;;3.83;2.30;;;19.90;99.90;;;;;;5051358;28;20182;-45
2022/07/17 07:10:51;;;;;;;6.10;2.67;;;20.10;99.90;;;;;;5050705;28;20198;-46
2022/07/17 07:13:16;;;;;;;7.13;2.80;;;20.10;99.90;;;;;;5052222;28;20203;-51
2022/07/17 07:15:42;;;;;;;4.70;2.63;;;20.10;99.90;;;;;;5054452;28;20221;-44
2022/07/17 07:18:08;;;;;;;4.88;2.83;;;20.20;99.90;;;;;;5054600;28;20171;-49
2022/07/17 07:20:34;;;;;;;5.88;2.83;;;20.20;99.90;;;;;;5054583;28;20560;-44
2022/07/17 07:23:00;;;;;;;7.53;2.70;;;20.00;99.90;;;;;;5054634;28;20172;-44
2022/07/17 07:25:25;;;;;;;6.35;2.30;;;20.40;99.90;;;;;;5055112;28;20162;-46
2022/07/17 07:27:51;;;;;;;4.15;2.40;;;20.40;99.90;;;;;;5054537;28;20241;-45
2022/07/17 07:30:17;;;;;;;8.77;2.65;;;20.60;99.90;;;;;;5054721;28;20170;-46
2022/07/17 07:32:43;;;;;;;6.03;2.38;;;20.80;99.90;;;;;;5054373;28;20207;-47
2022/07/17 07:35:09;;;;;;;8.05;2.88;;;20.70;99.90;;;;;;5054682;28;20628;-54
2022/07/17 07:37:36;;;;;;;7.18;2.97;;;20.80;99.90;;;;;;5054279;28;20167;-44
2022/07/17 07:40:02;;;;;;;7.57;2.47;;;20.80;99.90;;;;;;5053724;28;20197;-54
2022/07/17 07:42:28;;;;;;;7.68;3.20;;;21.00;99.90;;;;;;5054125;28;20171;-46
2022/07/17 07:44:54;;;;;;;6.57;2.22;;;21.20;99.90;;;;;;5054498;28;20229;-44
2022/07/17 07:47:20;;;;;;;8.57;3.10;;;21.40;99.90;;;;;;5054027;28;20535;-44
2022/07/17 07:49:46;;;;;;;4.25;2.50;;;21.40;99.90;;;;;;5053706;28;20180;-44
2022/07/17 07:52:11;;;;;;;4.95;2.38;;;21.50;99.90;;;;;;5054074;28;20175;-44
2022/07/17 07:54:37;;;;;;;6.57;2.50;;;21.70;99.90;;;;;;5054220;28;20258;-44
2022/07/17 07:57:03;;;;;;;6.15;2.55;;;21.90;99.90;;;;;;5053521;28;20181;-44
2022/07/17 07:59:32;;;;;;;7.30;2.10;;;21.80;99.90;;;;;;5053696;28;20181;-44
2022/07/17 08:01:59;;;;;;;5.15;2.70;;;21.90;99.90;;;;;;5053672;28;20206;-44
2022/07/17 08:04:25;;;;;;;6.70;2.47;;;22.00;99.90;;;;;;5053894;28;20171;-45
2022/07/17 08:06:50;;;;;;;4.97;2.45;;;22.10;99.90;;;;;;5053638;28;20245;-50
2022/07/17 08:09:16;;;;;;;8.40;2.63;;;22.10;99.90;;;;;;5053638;28;20539;-50
2022/07/17 08:11:42;;;;;;;6.47;2.40;;;22.10;99.90;;;;;;5052954;28;20534;-54
2022/07/17 08:14:08;;;;;;;10.13;2.65;;;22.20;99.90;;;;;;5053555;28;20177;-50
2022/07/17 08:16:33;;;;;;;8.82;2.75;;;22.40;99.90;;;;;;5053686;28;20175;-47
2022/07/17 08:18:59;;;;;;;10.52;2.58;;;22.40;99.90;;;;;;5053429;28;20261;-50
2022/07/17 08:21:25;;;;;;;9.35;2.40;;;22.40;99.90;;;;;;5053467;28;20238;-48
2022/07/17 08:23:50;;;;;;;5.97;2.38;;;22.60;99.90;;;;;;5053438;28;20545;-53
2022/07/17 08:26:16;;;;;;;7.88;2.47;;;22.60;99.90;;;;;;5053197;28;20266;-51
2022/07/17 08:28:41;;;;;;;7.03;2.20;;;22.70;99.90;;;;;;5053226;28;20163;-51
2022/07/17 08:31:07;;;;;;;10.05;2.38;;;22.90;99.90;;;;;;5053242;28;20167;-49
2022/07/17 08:33:32;;;;;;;8.65;2.85;;;22.70;99.90;;;;;;5053240;28;20159;-47
2022/07/17 08:35:58;;;;;;;5.50;1.95;;;22.90;99.90;;;;;;5048805;28;20178;-43
2022/07/17 08:38:24;;;;;;;7.60;1.95;;;22.70;99.90;;;;;;5039425;28;20166;-51
2022/07/17 08:40:52;;;;;;;5.68;2.38;;;23.00;99.90;;;;;;5049479;28;20198;-53
2022/07/17 08:43:17;;;;;;;3.72;1.92;;;23.10;99.90;;;;;;5052804;28;20179;-52
2022/07/17 08:45:43;;;;;;;4.63;1.75;;;23.30;99.90;;;;;;5051642;28;20171;-52
2022/07/17 08:48:13;;;;;;;7.25;2.25;;;23.30;99.90;;;;;;5052281;28;20290;-54
2022/07/17 08:50:40;;;;;;;6.80;2.22;;;23.40;99.90;;;;;;5052642;28;20173;-53
2022/07/17 08:53:06;;;;;;;6.90;2.22;;;23.60;99.90;;;;;;5052273;28;20178;-54
2022/07/17 08:55:32;;;;;;;4.00;2.65;;;23.30;99.90;;;;;;5052202;28;20510;-54
2022/07/17 08:57:58;;;;;;;5.25;2.10;;;23.10;99.90;;;;;;5052427;28;20171;-46
2022/07/17 09:00:25;;;;;;;8.20;2.28;;;23.10;99.90;;;;;;5052199;28;20202;-53
2022/07/17 09:03:02;;;;;;;7.50;2.58;;;23.40;99.90;;;;;;5052036;28;20633;-54
2022/07/17 09:05:30;;;;;;;4.90;2.42;;;23.20;99.90;;;;;;5052418;28;20165;-52
2022/07/17 09:07:56;;;;;;;5.85;1.73;;;23.00;99.90;;;;;;5052304;28;20224;-54
2022/07/17 09:10:39;;;;;;;4.28;1.88;;;23.20;99.90;;;;;;5052064;28;20171;-53
2022/07/17 09:13:24;;;;;;;5.22;2.65;;;23.60;99.90;;;;;;5052084;28;20167;-51
2022/07/17 09:15:59;;;;;;;5.47;2.38;;;23.70;99.90;;;;;;5051781;28;20174;-53
2022/07/17 09:18:24;;;;;;;11.93;2.42;;;23.70;99.90;;;;;;5052208;28;20170;-54
2022/07/17 09:20:56;;;;;;;5.07;2.40;;;23.80;99.90;;;;;;5051977;28;20260;-48
2022/07/17 09:23:23;;;;;;;6.78;2.58;;;23.90;99.90;;;;;;5052242;28;20205;-54
2022/07/17 09:25:51;;;;;;;4.97;2.40;;;24.10;99.90;;;;;;5052219;28;20185;-50
2022/07/17 09:28:17;;;;;;;6.55;2.70;;;24.20;99.90;;;;;;5061953;28;20170;-46
2022/07/17 09:30:46;;;;;;;5.32;2.53;;;24.30;99.90;;;;;;5070208;28;20174;-48
2022/07/17 09:33:21;;;;;;;13.93;2.40;;;24.20;99.90;;;;;;5070326;28;20219;-45
2022/07/17 09:36:07;;;;;;;5.22;2.53;;;24.30;99.90;;;;;;5069553;28;20161;-48
2022/07/17 09:38:35;;;;;;;10.55;2.60;;;24.40;99.90;;;;;;5068863;28;20655;-45
2022/07/17 09:41:15;;;;;;;8.82;3.13;;;24.30;99.90;;;;;;5069799;28;20209;-45
2022/07/17 09:43:52;;;;;;;7.00;2.63;;;24.40;99.90;;;;;;5070531;28;20704;-46
2022/07/17 09:46:28;;;;;;;8.00;2.80;;;24.50;99.90;;;;;;5071637;28;20177;-45
2022/07/17 09:48:59;;;;;;;6.57;2.60;;;24.60;99.90;;;;;;5072345;28;20252;-46
2022/07/17 09:51:28;;;;;;;5.68;2.55;;;25.00;99.90;;;;;;5071926;28;20182;-45
2022/07/17 09:53:56;;;;;;;6.47;3.00;;;24.70;99.90;;;;;;5072303;28;20158;-46
2022/07/17 09:56:25;;;;;;;6.10;2.60;;;24.80;99.90;;;;;;5071702;28;20633;-45
2022/07/17 09:58:54;;;;;;;6.90;2.88;;;24.90;99.00;;;;;;5072135;28;20169;-47
2022/07/17 10:01:20;;;;;;;5.18;2.17;;;24.80;99.40;;;;;;5070933;28;20220;-50
2022/07/17 10:03:48;;;;;;;8.50;2.45;;;24.90;98.70;;;;;;5071560;28;20169;-46
2022/07/17 10:06:14;;;;;;;3.80;2.30;;;25.20;98.20;;;;;;5071474;28;20312;-45
2022/07/17 10:08:40;;;;;;;7.20;2.60;;;25.40;97.10;;;;;;5071236;28;20277;-44
2022/07/17 10:11:10;;;;;;;4.85;2.42;;;25.30;98.50;;;;;;5071402;28;20188;-46
2022/07/17 10:13:38;;;;;;;6.95;2.47;;;25.40;98.10;;;;;;5070802;28;20165;-49
2022/07/17 10:16:04;;;;;;;6.30;2.20;;;25.60;97.40;;;;;;5070962;28;20635;-47
2022/07/17 10:18:41;;;;;;;5.43;2.75;;;25.60;95.70;;;;;;5070612;28;20177;-46
2022/07/17 10:21:18;;;;;;;9.15;2.63;;;25.60;96.80;;;;;;5070405;28;20216;-49
2022/07/17 10:23:50;;;;;;;6.63;2.58;;;25.70;96.30;;;;;;5071425;28;20534;-51
2022/07/17 10:26:16;;;;;;;4.75;2.45;;;25.70;96.30;;;;;;5071076;28;20177;-50
2022/07/17 10:28:46;;;;;;;7.55;2.58;;;25.80;95.70;;;;;;5070689;28;20166;-48
2022/07/17 10:31:30;;;;;;;5.32;2.60;;;25.70;94.20;;;;;;5071035;28;20661;-49
2022/07/17 10:34:00;;;;;;;6.43;2.50;;;25.80;94.40;;;;;;5071433;28;20189;-47
2022/07/17 10:36:41;;;;;;;6.28;2.60;;;26.10;95.20;;;;;;5071434;28;20741;-50
2022/07/17 10:39:20;;;;;;;7.47;3.25;;;26.10;94.00;;;;;;5071442;28;20557;-46
2022/07/17 10:42:02;;;;;;;6.50;2.60;;;26.00;94.10;;;;;;5070857;28;20193;-47
2022/07/17 10:44:31;;;;;;;6.28;2.30;;;26.00;94.60;;;;;;5071205;28;20162;-44
2022/07/17 10:46:58;;;;;;;6.63;2.67;;;26.50;93.80;;;;;;5071738;28;20272;-49
2022/07/17 10:49:24;;;;;;;6.15;2.65;;;26.20;92.30;;;;;;5075016;28;20170;-50
2022/07/17 10:51:50;;;;;;;7.40;3.38;;;26.00;93.10;;;;;;5074790;28;20172;-48
2022/07/17 10:54:17;;;;;;;7.63;2.63;;;26.30;92.90;;;;;;5074853;28;20173;-46
2022/07/17 10:56:46;;;;;;;5.63;2.92;;;26.10;92.80;;;;;;5074598;28;20680;-53
2022/07/17 10:59:12;;;;;;;7.60;2.85;;;26.40;93.00;;;;;;5074945;28;20170;-46
2022/07/17 11:01:38;;;;;;;8.18;2.75;;;26.60;92.70;;;;;;5073295;28;20702;-50
2022/07/17 11:04:07;;;;;;;5.53;2.85;;;26.70;92.10;;;;;;5074547;28;20162;-48
2022/07/17 11:06:35;;;;;;;7.40;2.85;;;26.70;91.20;;;;;;5073042;28;20249;-47
2022/07/17 11:09:10;;;;;;;5.30;2.88;;;26.60;91.00;;;;;;5074574;28;20208;-50
2022/07/17 11:11:51;;;;;;;10.65;3.28;;;26.70;91.40;;;;;;5074150;28;20619;-50
2022/07/17 11:14:22;;;;;;;10.82;3.28;;;26.60;91.10;;;;;;5074096;28;20166;-49
2022/07/17 11:16:55;;;;;;;8.20;3.10;;;26.50;90.70;;;;;;5074377;28;20193;-52
2022/07/17 11:19:32;;;;;;;9.52;3.22;;;26.90;91.50;;;;;;5074082;28;20166;-51
2022/07/17 11:22:01;;;;;;;6.65;2.92;;;27.10;90.80;;;;;;5074091;28;20200;-49
2022/07/17 11:24:43;;;;;;;8.77;3.30;;;27.10;90.80;;;;;;5054285;28;20254;-49
2022/07/17 11:27:23;;;;;;;7.13;2.60;;;26.90;89.40;;;;;;5033666;28;20166;-47
2022/07/17 11:29:50;;;;;;;5.95;3.13;;;27.10;90.40;;;;;;5033597;28;20175;-44
2022/07/17 11:32:15;;;;;;;6.55;2.95;;;27.20;90.40;;;;;;5034081;28;20185;-45
2022/07/17 11:34:41;;;;;;;6.78;3.15;;;27.40;90.20;;;;;;5034082;28;20620;-44
2022/07/17 11:37:08;;;;;;;10.20;2.92;;;27.40;87.50;;;;;;5034345;28;20250;-44
2022/07/17 11:39:48;;;;;;;5.65;2.97;;;27.40;86.80;;;;;;5034539;28;20216;-45
2022/07/17 11:42:19;;;;;;;6.80;3.42;;;27.10;85.70;;;;;;5034184;28;20302;-53
2022/07/17 11:44:46;;;;;;;4.55;2.60;;;27.30;86.50;;;;;;5034209;28;20163;-51
2022/07/17 11:47:19;;;;;;;7.95;2.70;;;27.40;86.50;;;;;;5034195;28;20250;-51
2022/07/17 11:49:44;;;;;;;13.45;2.60;;;27.60;85.50;;;;;;5034051;28;20185;-48
2022/07/17 11:52:21;;;;;;;8.60;2.50;;;27.60;87.00;;;;;;5034244;28;20167;-47
2022/07/17 11:54:52;;;;;;;9.15;2.50;;;27.80;86.50;;;;;;5033554;28;20686;-50
2022/07/17 11:57:18;;;;;;;6.25;2.67;;;27.90;85.20;;;;;;5033920;28;20213;-48
2022/07/17 11:59:45;;;;;;;10.23;4.38;;;27.50;80.80;;;;;;5033480;28;20162;-49
2022/07/17 12:02:18;;;;;;;6.05;2.30;;;27.40;82.20;;;;;;5033784;28;20210;-47
2022/07/17 12:04:51;;;;;;;8.18;3.28;;;27.40;84.20;;;;;;5034140;28;20174;-47
2022/07/17 12:07:17;;;;;;;5.25;2.60;;;27.60;82.20;;;;;;5033630;28;20218;-45
2022/07/17 12:09:43;;;;;;;11.95;2.55;;;27.90;81.20;;;;;;5033808;28;20167;-45
2022/07/17 12:12:22;;;;;;;7.40;2.13;;;28.10;81.50;;;;;;5033997;28;20675;-46
2022/07/17 12:14:58;;;;;;;6.93;2.47;;;28.10;80.20;;;;;;5033935;28;20253;-46
2022/07/17 12:17:45;;;;;;;5.97;2.00;;;28.10;81.70;;;;;;5034037;28;20166;-45
2022/07/17 12:20:11;;;;;;;3.75;2.30;;;28.20;82.20;;;;;;5033100;28;20209;-45
2022/07/17 12:22:48;;;;;;;8.50;2.72;;;28.00;78.90;;;;;;5033565;28;20206;-45
2022/07/17 12:25:24;;;;;;;5.32;2.05;;;28.20;78.80;;;;;;5033840;28;20171;-47
2022/07/17 12:27:50;;;;;;;5.80;2.70;;;28.10;77.80;;;;;;5033390;28;20190;-47
2022/07/17 12:30:16;;;;;;;5.78;2.50;;;28.00;77.40;;;;;;5034014;28;20522;-46
2022/07/17 12:32:42;;;;;;;6.63;2.47;;;28.40;76.40;;;;;;5033790;28;20170;-45
2022/07/17 12:35:08;;;;;;;6.88;2.90;;;28.50;75.70;;;;;;5033382;28;20163;-49
2022/07/17 12:37:33;;;;;;;5.35;2.13;;;28.40;75.70;;;;;;5033435;28;20170;-44
2022/07/17 12:39:59;;;;;;;6.45;2.17;;;28.50;75.70;;;;;;5033183;28;20163;-44
2022/07/17 12:42:24;;;;;;;4.15;1.80;;;28.50;76.30;;;;;;5033580;28;20186;-46
2022/07/17 12:44:50;;;;;;;5.63;2.10;;;28.50;73.80;;;;;;5033249;28;20195;-50
2022/07/17 12:47:16;;;;;;;3.85;1.90;;;28.40;72.90;;;;;;5033810;28;20167;-45